Time;durP1;ratioP1;P1;durP2;ratioP2;P2;SDS_P1;SDS_P2;PMS_P1;PMS_P2;Temp;Humidity;BMP_temperature;BMP_pressure;BME280_temperature;BME280_humidity;BME280_pressure;Samples;Min_cycle;Max_cycle;Signal;HPM_P1;HPM_P2
2022/06/30 00:01:53;;;;;;;;;;;;;;;26.91;100.00;98575.66;5035201;28;21075;-39
2022/06/30 00:04:18;;;;;;;;;;;;;;;26.66;100.00;98575.66;5035453;28;19929;-39
2022/06/30 00:06:44;;;;;;;;;;;;;;;26.68;100.00;98576.28;5035479;28;19995;-39
2022/06/30 00:09:09;;;;;;;;;;;;;;;26.53;100.00;98574.44;5034655;28;20906;-39
2022/06/30 00:11:34;;;;;;;;;;;;;;;26.78;100.00;98577.97;5033734;28;19920;-39
2022/06/30 00:14:00;;;;;;;;;;;;;;;26.88;100.00;98576.81;5035709;28;20394;-39
2022/06/30 00:16:25;;;;;;;;;;;;;;;26.90;100.00;98568.75;5035880;28;19920;-39
2022/06/30 00:18:50;;;;;;;;;;;;;;;26.73;100.00;98578.47;5034223;28;20783;-39
2022/06/30 00:21:15;;;;;;;;;;;;;;;26.94;100.00;98580.66;5035077;28;20013;-39
2022/06/30 00:23:41;;;;;;;;;;;;;;;26.98;100.00;98576.69;5034619;28;19931;-39
2022/06/30 00:26:06;;;;;;;;;;;;;;;28.13;100.00;98566.75;5033868;28;19917;-39
2022/06/30 00:28:31;;;;;;;;;;;;;;;28.16;100.00;98561.13;5034623;28;19924;-39
2022/06/30 00:30:57;;;;;;;;;;;;;;;28.06;100.00;98563.16;5034263;28;19917;-39
2022/06/30 00:33:22;;;;;;;;;;;;;;;28.05;100.00;98568.63;5034477;28;19958;-39
2022/06/30 00:35:47;;;;;;;;;;;;;;;27.78;100.00;98554.81;5035552;28;19916;-40
2022/06/30 00:38:13;;;;;;;;;;;;;;;27.17;100.00;98564.13;5034440;28;19921;-40
2022/06/30 00:40:39;;;;;;;;;;;;;;;26.48;100.00;98559.91;5033329;28;19927;-39
2022/06/30 00:43:04;;;;;;;;;;;;;;;26.53;100.00;98556.78;5034762;28;19931;-39
2022/06/30 00:45:30;;;;;;;;;;;;;;;26.92;100.00;98550.91;5034595;28;19920;-39
2022/06/30 00:47:55;;;;;;;;;;;;;;;27.29;100.00;98547.78;5034543;28;20386;-39
2022/06/30 00:50:20;;;;;;;;;;;;;;;28.64;100.00;98547.00;5033774;28;20723;-39
2022/06/30 00:52:45;;;;;;;;;;;;;;;29.00;100.00;98541.91;5034930;28;19983;-39
2022/06/30 00:55:11;;;;;;;;;;;;;;;29.22;100.00;98544.72;5033324;28;19921;-39
2022/06/30 00:57:36;;;;;;;;;;;;;;;29.01;100.00;98538.25;5033085;28;19920;-39
2022/06/30 01:00:02;;;;;;;;;;;;;;;29.09;100.00;98535.56;5032179;28;20872;-40
2022/06/30 01:02:27;;;;;;;;;;;;;;;29.26;100.00;98533.59;5035005;28;19976;-39
2022/06/30 01:04:53;;;;;;;;;;;;;;;28.83;100.00;98529.78;5034189;28;20581;-39
2022/06/30 01:07:19;;;;;;;;;;;;;;;29.00;100.00;98531.31;5034680;28;21074;-39
2022/06/30 01:12:44;;;;;;;;;;;;;;;29.09;100.00;98527.63;5034228;28;19927;-39
2022/06/30 01:15:13;;;;;;;;;;;;;;;29.07;100.00;98526.94;5034444;28;19925;-39
2022/06/30 01:17:38;;;;;;;;;;;;;;;28.74;100.00;98526.41;5032397;28;19927;-39
2022/06/30 01:20:04;;;;;;;;;;;;;;;28.38;100.00;98528.75;5033344;28;19921;-39
2022/06/30 01:22:29;;;;;;;;;;;;;;;28.28;100.00;98527.16;5033324;28;19932;-40
2022/06/30 01:24:55;;;;;;;;;;;;;;;28.02;100.00;98516.03;5033771;28;19951;-39
2022/06/30 01:27:20;;;;;;;;;;;;;;;28.61;100.00;98526.97;5034218;28;19916;-39
2022/06/30 01:29:45;;;;;;;;;;;;;;;28.70;100.00;98515.31;5033504;28;19921;-39
2022/06/30 01:32:11;;;;;;;;;;;;;;;27.04;100.00;98527.63;5034216;28;20026;-39
2022/06/30 01:34:36;;;;;;;;;;;;;;;26.70;100.00;98525.94;5031693;28;19921;-39
2022/06/30 01:37:01;;;;;;;;;;;;;;;28.00;100.00;98523.31;5032712;28;20002;-39
2022/06/30 01:39:27;;;;;;;;;;;;;;;28.19;100.00;98528.19;5032892;28;19994;-39
2022/06/30 01:41:52;;;;;;;;;;;;;;;28.44;100.00;98522.75;5032863;28;19994;-39
2022/06/30 01:44:17;;;;;;;;;;;;;;;28.32;100.00;98531.09;5032053;28;19960;-39
2022/06/30 01:46:46;;;;;;;;;;;;;;;27.91;100.00;98533.91;5032524;28;19929;-39
2022/06/30 01:49:11;;;;;;;;;;;;;;;28.16;100.00;98531.19;5032576;28;19943;-39
2022/06/30 01:51:36;;;;;;;;;;;;;;;27.92;100.00;98526.84;5030706;28;20729;-39
2022/06/30 01:54:01;;;;;;;;;;;;;;;27.82;100.00;98526.97;5032541;28;20435;-39
2022/06/30 01:56:27;;;;;;;;;;;;;;;27.98;100.00;98527.94;5032310;28;19924;-39
2022/06/30 01:58:52;;;;;;;;;;;;;;;27.26;100.00;98523.50;5032854;28;19924;-39
2022/06/30 02:01:17;;;;;;;;;;;;;;;27.54;100.00;98527.41;5032624;28;20396;-39
2022/06/30 02:03:42;;;;;;;;;;;;;;;27.54;100.00;98519.47;5031676;28;20396;-39
2022/06/30 02:06:08;;;;;;;;;;;;;;;28.03;100.00;98518.50;5031903;28;20643;-39
2022/06/30 02:08:33;;;;;;;;;;;;;;;27.38;100.00;98513.41;5033577;28;19945;-39
2022/06/30 02:10:58;;;;;;;;;;;;;;;27.60;100.00;98506.53;5032382;28;20023;-39
2022/06/30 02:13:23;;;;;;;;;;;;;;;27.91;100.00;98504.81;5033377;28;19932;-39
2022/06/30 02:15:49;;;;;;;;;;;;;;;27.51;100.00;98511.88;5033137;28;20401;-39
2022/06/30 02:18:14;;;;;;;;;;;;;;;27.84;100.00;98508.31;5033046;28;20358;-39
2022/06/30 02:20:39;;;;;;;;;;;;;;;27.85;100.00;98510.81;5030599;28;20416;-39
2022/06/30 02:23:05;;;;;;;;;;;;;;;27.74;100.00;98505.84;5033185;28;19964;-39
2022/06/30 02:25:31;;;;;;;;;;;;;;;27.70;100.00;98493.97;5031687;28;19963;-39
2022/06/30 02:27:56;;;;;;;;;;;;;;;27.59;100.00;98497.78;5032666;28;19960;-39
2022/06/30 02:30:21;;;;;;;;;;;;;;;27.56;100.00;98498.16;5028566;28;19990;-39
2022/06/30 02:32:47;;;;;;;;;;;;;;;27.51;100.00;98489.91;5033892;28;19956;-39
2022/06/30 02:35:12;;;;;;;;;;;;;;;27.26;100.00;98494.41;5032906;28;20050;-39
2022/06/30 02:37:38;;;;;;;;;;;;;;;27.25;100.00;98498.03;5032466;28;19966;-39
2022/06/30 02:40:03;;;;;;;;;;;;;;;27.25;100.00;98493.56;5030538;28;20267;-39
2022/06/30 02:42:28;;;;;;;;;;;;;;;27.06;100.00;98500.03;5033105;28;20032;-39
2022/06/30 02:44:54;;;;;;;;;;;;;;;27.00;100.00;98498.03;5032092;28;19928;-39
2022/06/30 02:47:19;;;;;;;;;;;;;;;26.25;100.00;98501.59;5031754;28;19924;-39
2022/06/30 02:49:44;;;;;;;;;;;;;;;26.44;100.00;98494.38;5031756;28;20039;-39
2022/06/30 02:52:09;;;;;;;;;;;;;;;26.77;100.00;98497.06;5031597;28;20031;-39
2022/06/30 02:54:35;;;;;;;;;;;;;;;27.17;100.00;98498.03;5031573;28;19928;-39
2022/06/30 02:57:00;;;;;;;;;;;;;;;27.10;100.00;98497.88;5032370;28;19952;-39
2022/06/30 02:59:25;;;;;;;;;;;;;;;27.08;100.00;98508.63;5032148;28;20486;-39
2022/06/30 03:01:50;;;;;;;;;;;;;;;26.93;100.00;98510.25;5032917;28;19947;-39
2022/06/30 03:04:16;;;;;;;;;;;;;;;27.03;100.00;98507.47;5035317;28;19924;-39
2022/06/30 03:06:41;;;;;;;;;;;;;;;27.18;100.00;98505.78;5035985;28;19964;-39
2022/06/30 03:09:06;;;;;;;;;;;;;;;27.20;100.00;98500.34;5035217;28;20683;-39
2022/06/30 03:11:32;;;;;;;;;;;;;;;27.21;100.00;98497.56;5035475;28;20017;-39
2022/06/30 03:13:57;;;;;;;;;;;;;;;27.08;100.00;98498.03;5035425;28;20019;-39
2022/06/30 03:16:22;;;;;;;;;;;;;;;26.60;100.00;98504.16;5036240;28;19943;-39
2022/06/30 03:18:47;;;;;;;;;;;;;;;27.06;100.00;98494.75;5036161;28;19977;-39
2022/06/30 03:21:13;;;;;;;;;;;;;;;26.96;100.00;98504.66;5035542;28;21045;-39
2022/06/30 03:23:38;;;;;;;;;;;;;;;27.16;100.00;98499.03;5035182;28;20024;-39
2022/06/30 03:26:03;;;;;;;;;;;;;;;27.10;100.00;98496.06;5036245;28;19967;-39
2022/06/30 03:28:29;;;;;;;;;;;;;;;27.15;100.00;98498.19;5034100;28;19972;-39
2022/06/30 03:30:54;;;;;;;;;;;;;;;27.17;100.00;98503.34;5035647;28;19948;-38
2022/06/30 03:33:19;;;;;;;;;;;;;;;26.54;100.00;98499.50;5036354;28;19916;-39
2022/06/30 03:35:45;;;;;;;;;;;;;;;26.78;100.00;98493.44;5036583;28;20432;-38
2022/06/30 03:38:10;;;;;;;;;;;;;;;26.75;100.00;98491.13;5035008;28;20022;-38
2022/06/30 03:40:36;;;;;;;;;;;;;;;25.43;100.00;98495.97;5035808;28;19917;-39
2022/06/30 03:43:01;;;;;;;;;;;;;;;25.58;100.00;98495.38;5036062;28;19966;-39
2022/06/30 03:45:26;;;;;;;;;;;;;;;25.61;100.00;98495.03;5035981;28;19925;-38
2022/06/30 03:47:51;;;;;;;;;;;;;;;26.27;100.00;98486.44;5034622;28;19920;-38
2022/06/30 03:50:17;;;;;;;;;;;;;;;26.39;100.00;98491.38;5035032;28;19963;-39
2022/06/30 03:52:42;;;;;;;;;;;;;;;25.87;100.00;98493.22;5035334;28;19960;-39
2022/06/30 03:55:07;;;;;;;;;;;;;;;26.23;100.00;98495.66;5035888;28;20291;-38
2022/06/30 03:57:33;;;;;;;;;;;;;;;25.73;100.00;98499.06;5035100;28;20372;-39
2022/06/30 03:59:58;;;;;;;;;;;;;;;26.65;100.00;98497.38;5034019;28;20147;-39
2022/06/30 04:02:23;;;;;;;;;;;;;;;26.78;100.00;98496.09;5036133;28;20034;-39
2022/06/30 04:04:48;;;;;;;;;;;;;;;26.64;100.00;98484.34;5035498;28;19971;-38
2022/06/30 04:07:13;;;;;;;;;;;;;;;26.17;100.00;98490.19;5035519;28;20299;-38
2022/06/30 04:09:39;;;;;;;;;;;;;;;26.62;100.00;98487.16;5034850;28;20337;-39
2022/06/30 04:12:04;;;;;;;;;;;;;;;26.74;100.00;98492.94;5035663;28;19916;-38
2022/06/30 04:14:29;;;;;;;;;;;;;;;27.21;100.00;98494.09;5035082;28;19921;-38
2022/06/30 04:16:55;;;;;;;;;;;;;;;26.86;100.00;98499.53;5035366;28;19971;-38
2022/06/30 04:19:20;;;;;;;;;;;;;;;27.37;100.00;98486.13;5033556;28;20437;-39
2022/06/30 04:21:45;;;;;;;;;;;;;;;26.44;100.00;98489.09;5035273;28;20342;-38
2022/06/30 04:24:10;;;;;;;;;;;;;;;25.98;100.00;98491.25;5034852;28;20350;-38
2022/06/30 04:26:36;;;;;;;;;;;;;;;26.43;100.00;98497.97;5035299;28;19921;-39
2022/06/30 04:29:02;;;;;;;;;;;;;;;26.92;100.00;98492.78;5032648;28;19924;-38
2022/06/30 04:34:11;;;;;;;;;;;;;;;26.51;100.00;98490.09;5034555;28;19998;-39
2022/06/30 04:36:36;;;;;;;;;;;;;;;26.76;100.00;98495.41;5035681;28;19995;-38
2022/06/30 04:39:01;;;;;;;;;;;;;;;26.43;100.00;98492.69;5033405;28;19967;-39
2022/06/30 04:41:26;;;;;;;;;;;;;;;26.90;100.00;98479.72;5036232;28;19932;-39
2022/06/30 04:43:52;;;;;;;;;;;;;;;27.39;100.00;98481.47;5036369;28;20884;-38
2022/06/30 04:46:18;;;;;;;;;;;;;;;26.46;100.00;98482.66;5036187;28;20725;-38
2022/06/30 04:48:43;;;;;;;;;;;;;;;26.09;100.00;98480.41;5036059;28;19921;-39
2022/06/30 04:51:08;;;;;;;;;;;;;;;27.46;100.00;98477.19;5035397;28;19925;-38
2022/06/30 04:53:34;;;;;;;;;;;;;;;26.64;100.00;98469.34;5036702;28;19923;-39
2022/06/30 04:55:59;;;;;;;;;;;;;;;26.41;100.00;98478.84;5036841;28;19920;-39
2022/06/30 04:58:24;;;;;;;;;;;;;;;27.24;100.00;98483.19;5035981;28;20003;-39
2022/06/30 05:00:49;;;;;;;;;;;;;;;26.97;100.00;98479.06;5034379;28;20504;-39
2022/06/30 05:03:15;;;;;;;;;;;;;;;27.69;100.00;98465.88;5035498;28;20491;-39
2022/06/30 05:05:40;;;;;;;;;;;;;;;27.70;100.00;98475.44;5034342;28;20061;-39
2022/06/30 05:08:05;;;;;;;;;;;;;;;27.83;100.00;98474.91;5034847;28;19917;-39
2022/06/30 05:10:30;;;;;;;;;;;;;;;27.97;100.00;98473.38;5032042;28;19935;-39
2022/06/30 05:12:56;;;;;;;;;;;;;;;28.03;100.00;98470.03;5034160;28;19967;-38
2022/06/30 05:15:21;;;;;;;;;;;;;;;27.99;100.00;98471.38;5034475;28;19920;-39
2022/06/30 05:17:46;;;;;;;;;;;;;;;28.10;100.00;98476.25;5034471;28;19916;-39
2022/06/30 05:20:12;;;;;;;;;;;;;;;28.48;100.00;98473.75;5033504;28;19975;-39
2022/06/30 05:22:37;;;;;;;;;;;;;;;27.52;100.00;98473.84;5034031;28;20854;-39
2022/06/30 05:27:46;;;;;;;;;;;;;;;27.84;100.00;98472.09;5032915;28;19928;-39
2022/06/30 05:30:12;;;;;;;;;;;;;;;28.90;100.00;98473.25;5031945;28;19921;-39
2022/06/30 05:32:37;;;;;;;;;;;;;;;29.73;100.00;98467.94;5033380;28;20076;-39
2022/06/30 05:35:03;;;;;;;;;;;;;;;30.28;100.00;98466.56;5034662;28;19932;-39
2022/06/30 05:37:28;;;;;;;;;;;;;;;30.52;100.00;98472.50;5033510;28;19916;-38
2022/06/30 05:39:54;;;;;;;;;;;;;;;30.10;100.00;98474.09;5032607;28;19925;-39
2022/06/30 05:42:19;;;;;;;;;;;;;;;30.84;96.52;98465.84;5032589;28;19929;-38
2022/06/30 05:44:45;;;;;;;;;;;;;;;30.73;98.44;98464.53;5033405;28;20015;-39
2022/06/30 05:47:11;;;;;;;;;;;;;;;30.53;92.17;98459.03;5034023;28;19919;-39
2022/06/30 05:49:37;;;;;;;;;;;;;;;30.91;98.06;98466.75;5032910;28;21099;-39
2022/06/30 05:52:02;;;;;;;;;;;;;;;31.50;97.25;98462.88;5033081;28;20429;-39
2022/06/30 05:54:28;;;;;;;;;;;;;;;31.55;95.80;98457.78;5033627;28;19921;-39
2022/06/30 05:56:53;;;;;;;;;;;;;;;31.32;95.94;98459.88;5032929;28;19916;-39
2022/06/30 05:59:18;;;;;;;;;;;;;;;31.66;94.81;98459.88;5033015;28;19921;-39
2022/06/30 06:01:43;;;;;;;;;;;;;;;31.37;97.86;98462.75;5032454;28;19921;-39
2022/06/30 06:04:09;;;;;;;;;;;;;;;31.73;93.98;98459.09;5033218;28;19928;-39
2022/06/30 06:06:34;;;;;;;;;;;;;;;32.08;92.71;98462.50;5033228;28;19918;-39
2022/06/30 06:08:59;;;;;;;;;;;;;;;31.27;96.38;98469.25;5031179;28;20356;-39
2022/06/30 06:11:25;;;;;;;;;;;;;;;31.64;93.57;98472.56;5032051;28;19925;-39
2022/06/30 06:13:50;;;;;;;;;;;;;;;32.25;92.13;98469.13;5031977;28;19927;-39
2022/06/30 06:16:15;;;;;;;;;;;;;;;32.56;91.53;98458.94;5033082;28;19916;-39
2022/06/30 06:18:41;;;;;;;;;;;;;;;32.74;89.23;98461.81;5032562;28;20351;-39
2022/06/30 06:21:06;;;;;;;;;;;;;;;32.68;88.71;98462.63;5032127;28;19923;-39
2022/06/30 06:23:31;;;;;;;;;;;;;;;32.46;88.25;98465.47;5032596;28;19920;-39
2022/06/30 06:25:56;;;;;;;;;;;;;;;33.10;87.98;98466.75;5033459;28;20457;-39
2022/06/30 06:31:07;;;;;;;;;;;;;;;33.35;85.54;98463.44;5032461;28;19927;-39
2022/06/30 06:33:32;;;;;;;;;;;;;;;32.75;86.38;98460.78;5031659;28;19924;-39
2022/06/30 06:35:58;;;;;;;;;;;;;;;33.25;83.86;98458.50;5033141;28;19975;-39
2022/06/30 06:38:23;;;;;;;;;;;;;;;32.24;86.53;98462.13;5033287;28;19925;-39
2022/06/30 06:40:48;;;;;;;;;;;;;;;32.09;89.79;98464.97;5036730;28;20778;-39
2022/06/30 06:43:13;;;;;;;;;;;;;;;33.79;84.63;98461.03;5036789;28;19972;-39
2022/06/30 06:45:39;;;;;;;;;;;;;;;33.01;85.53;98467.16;5035352;28;19929;-39
2022/06/30 06:48:04;;;;;;;;;;;;;;;33.01;82.43;98475.97;5037245;28;19917;-39
2022/06/30 06:50:29;;;;;;;;;;;;;;;33.97;81.34;98468.38;5035169;28;20254;-39
2022/06/30 06:52:55;;;;;;;;;;;;;;;33.79;82.56;98471.72;5036953;28;19928;-39
2022/06/30 06:55:20;;;;;;;;;;;;;;;33.79;82.94;98474.41;5037293;28;19971;-39
2022/06/30 06:57:46;;;;;;;;;;;;;;;34.35;79.19;98469.19;5037662;28;19917;-39
2022/06/30 07:00:12;;;;;;;;;;;;;;;34.25;78.83;98473.38;5036254;28;19925;-39
2022/06/30 07:02:38;;;;;;;;;;;;;;;34.14;79.75;98473.03;5037316;28;20516;-39
2022/06/30 07:05:03;;;;;;;;;;;;;;;34.72;75.98;98473.91;5037408;28;19929;-39
2022/06/30 07:07:28;;;;;;;;;;;;;;;34.64;77.60;98472.28;5036769;28;19993;-39
2022/06/30 07:09:54;;;;;;;;;;;;;;;35.07;74.06;98468.84;5036782;28;20511;-39
2022/06/30 07:12:19;;;;;;;;;;;;;;;34.91;73.79;98466.75;5037628;28;20394;-39
2022/06/30 07:14:44;;;;;;;;;;;;;;;35.17;72.30;98463.00;5037066;28;20417;-39
2022/06/30 07:17:09;;;;;;;;;;;;;;;35.63;72.09;98469.78;5037153;28;20803;-39
2022/06/30 07:19:35;;;;;;;;;;;;;;;35.73;70.40;98464.69;5036021;28;19916;-39
2022/06/30 07:22:00;;;;;;;;;;;;;;;34.29;73.20;98470.06;5036127;28;19962;-39
2022/06/30 07:24:25;;;;;;;;;;;;;;;33.85;75.81;98471.69;5036911;28;19932;-39
2022/06/30 07:26:50;;;;;;;;;;;;;;;35.36;69.81;98464.69;5036106;28;20314;-39
2022/06/30 07:29:16;;;;;;;;;;;;;;;34.35;71.89;98473.72;5036328;28;19917;-39
2022/06/30 07:31:41;;;;;;;;;;;;;;;35.09;69.39;98474.00;5036807;28;20452;-39
2022/06/30 07:34:07;;;;;;;;;;;;;;;35.74;69.81;98469.03;5035939;28;19921;-39
2022/06/30 07:36:32;;;;;;;;;;;;;;;34.78;68.46;98467.66;5036296;28;19920;-39
2022/06/30 07:38:57;;;;;;;;;;;;;;;34.22;70.17;98474.63;5035539;28;20769;-39
2022/06/30 07:41:24;;;;;;;;;;;;;;;33.80;73.48;98482.19;5036794;28;20354;-39
2022/06/30 07:43:50;;;;;;;;;;;;;;;33.52;72.46;98485.13;5035914;28;19925;-39
2022/06/30 07:46:15;;;;;;;;;;;;;;;34.96;61.61;98475.72;5035229;28;19971;-39
2022/06/30 07:48:40;;;;;;;;;;;;;;;34.73;66.55;98481.69;5036156;28;19924;-39
2022/06/30 07:51:05;;;;;;;;;;;;;;;35.05;67.32;98480.81;5033771;28;19923;-39
2022/06/30 07:53:31;;;;;;;;;;;;;;;34.93;72.68;98486.88;5036608;28;19978;-39
2022/06/30 07:55:56;;;;;;;;;;;;;;;33.85;77.35;98485.06;5035693;28;19920;-39
2022/06/30 07:58:21;;;;;;;;;;;;;;;34.54;71.28;98483.47;5035491;28;19928;-39
2022/06/30 08:00:46;;;;;;;;;;;;;;;34.80;67.11;98484.31;5034024;28;19931;-39
2022/06/30 08:03:12;;;;;;;;;;;;;;;33.62;74.04;98485.56;5036060;28;20362;-39
2022/06/30 08:05:37;;;;;;;;;;;;;;;34.25;61.06;98489.41;5035426;28;19931;-39
2022/06/30 08:08:02;;;;;;;;;;;;;;;34.09;68.44;98486.16;5035983;28;20024;-39
2022/06/30 08:10:27;;;;;;;;;;;;;;;34.12;61.11;98484.94;5035630;28;20733;-39
2022/06/30 08:12:53;;;;;;;;;;;;;;;34.15;56.73;98485.34;5033932;28;19964;-40
2022/06/30 08:15:18;;;;;;;;;;;;;;;33.44;57.24;98488.06;5035106;28;19921;-39
2022/06/30 08:17:43;;;;;;;;;;;;;;;34.08;62.15;98479.19;5035468;28;19962;-39
2022/06/30 08:20:08;;;;;;;;;;;;;;;35.90;53.09;98477.47;5034988;28;20017;-39
2022/06/30 08:22:34;;;;;;;;;;;;;;;34.69;55.26;98474.31;5033971;28;19959;-39
2022/06/30 08:24:59;;;;;;;;;;;;;;;34.29;54.77;98475.41;5035479;28;20393;-39
2022/06/30 08:27:24;;;;;;;;;;;;;;;33.53;50.87;98482.25;5032330;28;19925;-39
2022/06/30 08:29:50;;;;;;;;;;;;;;;33.26;48.25;98486.84;5033684;28;20023;-39
2022/06/30 08:32:15;;;;;;;;;;;;;;;35.54;44.86;98477.25;5035902;28;19952;-39
2022/06/30 08:34:41;;;;;;;;;;;;;;;35.71;47.41;98471.31;5036285;28;20470;-39
2022/06/30 08:37:06;;;;;;;;;;;;;;;34.54;53.41;98475.44;5035500;28;20023;-39
2022/06/30 08:42:16;;;;;;;;;;;;;;;35.47;58.69;98479.19;5035373;28;20412;-39
2022/06/30 08:44:41;;;;;;;;;;;;;;;33.89;55.00;98485.44;5034267;28;19921;-39
2022/06/30 08:47:08;;;;;;;;;;;;;;;34.29;58.15;98490.63;5035301;28;20262;-39
2022/06/30 08:49:34;;;;;;;;;;;;;;;36.73;51.63;98483.97;5033923;28;19969;-39
2022/06/30 08:52:00;;;;;;;;;;;;;;;35.37;53.96;98487.72;5035650;28;19956;-39
2022/06/30 08:54:26;;;;;;;;;;;;;;;35.89;53.20;98483.88;5035480;28;20011;-39
2022/06/30 08:56:51;;;;;;;;;;;;;;;35.78;53.74;98486.25;5034981;28;19973;-39
2022/06/30 08:59:17;;;;;;;;;;;;;;;35.93;53.69;98477.84;5033393;28;19944;-39
2022/06/30 09:01:43;;;;;;;;;;;;;;;35.56;54.30;98482.41;5033697;28;19956;-39
2022/06/30 09:04:11;;;;;;;;;;;;;;;37.12;50.38;98487.06;5034668;28;20019;-39
2022/06/30 09:06:37;;;;;;;;;;;;;;;38.77;46.66;98478.47;5034651;28;20023;-39
2022/06/30 09:09:03;;;;;;;;;;;;;;;37.32;49.27;98492.88;5033715;28;19982;-39
2022/06/30 09:11:48;;;;;;;;;;;;;;;37.66;50.05;98488.53;5034124;28;19921;-39
2022/06/30 09:14:32;;;;;;;;;;;;;;;36.88;48.98;98492.38;5033437;28;19916;-39
2022/06/30 09:16:58;;;;;;;;;;;;;;;36.31;52.92;98492.00;5034808;28;19926;-40
2022/06/30 09:19:23;;;;;;;;;;;;;;;36.69;51.49;98488.97;5032981;28;19925;-39
2022/06/30 09:22:04;;;;;;;;;;;;;;;36.21;52.51;98488.00;5033704;28;19924;-39
2022/06/30 09:24:30;;;;;;;;;;;;;;;37.90;47.08;98472.31;5033687;28;19931;-40
2022/06/30 09:27:11;;;;;;;;;;;;;;;38.59;45.32;98474.94;5031950;28;19916;-39
2022/06/30 09:29:53;;;;;;;;;;;;;;;39.32;41.88;98483.06;5033033;28;20046;-39
2022/06/30 09:32:18;;;;;;;;;;;;;;;37.17;43.43;98490.66;5040869;28;19999;-39
2022/06/30 09:34:44;;;;;;;;;;;;;;;37.50;42.85;98496.47;5033699;28;19923;-39
2022/06/30 09:37:16;;;;;;;;;;;;;;;38.40;42.71;98481.59;5033982;28;19920;-39
2022/06/30 09:39:43;;;;;;;;;;;;;;;37.01;42.06;98481.41;5033216;28;19975;-40
2022/06/30 09:42:09;;;;;;;;;;;;;;;38.12;44.05;98477.88;5034267;28;19992;-39
2022/06/30 09:44:34;;;;;;;;;;;;;;;38.04;42.68;98471.00;5032489;28;20887;-39
2022/06/30 09:47:01;;;;;;;;;;;;;;;35.98;46.93;98474.47;5033043;28;19916;-39
2022/06/30 09:49:30;;;;;;;;;;;;;;;37.92;43.89;98470.22;5033162;28;19924;-39
2022/06/30 09:51:55;;;;;;;;;;;;;;;37.99;43.65;98464.69;5033001;28;19913;-39
2022/06/30 09:54:21;;;;;;;;;;;;;;;38.23;41.62;98460.88;5034026;28;19928;-39
2022/06/30 09:57:03;;;;;;;;;;;;;;;38.01;39.94;98459.94;5033778;28;19917;-39
2022/06/30 09:59:28;;;;;;;;;;;;;;;39.65;36.30;98460.59;5033195;28;20019;-39
2022/06/30 10:01:54;;;;;;;;;;;;;;;39.30;38.33;98458.25;5032055;28;19967;-39
2022/06/30 10:04:19;;;;;;;;;;;;;;;38.31;35.37;98461.53;5033979;28;20685;-39
2022/06/30 10:06:44;;;;;;;;;;;;;;;37.57;35.83;98473.03;5033145;28;19974;-39
2022/06/30 10:09:10;;;;;;;;;;;;;;;38.54;39.01;98456.03;5032222;28;19948;-39
2022/06/30 10:11:35;;;;;;;;;;;;;;;38.37;36.77;98463.25;5032068;28;19917;-39
2022/06/30 10:14:00;;;;;;;;;;;;;;;38.86;39.87;98463.53;5032674;28;19924;-39
2022/06/30 10:16:26;;;;;;;;;;;;;;;36.67;37.87;98461.56;5031872;28;20380;-39
2022/06/30 10:18:51;;;;;;;;;;;;;;;35.71;41.25;98461.41;5031770;28;20815;-39
2022/06/30 10:21:17;;;;;;;;;;;;;;;37.05;40.81;98457.59;5033178;28;19920;-39
2022/06/30 10:23:43;;;;;;;;;;;;;;;38.21;38.58;98448.72;5030877;28;19917;-39
2022/06/30 10:27:11;;;;;;;;;;;;;;;35.08;40.70;98459.78;5032927;28;19925;-39
2022/06/30 10:28:53;;;;;;;;;;;;;;;36.40;39.52;98447.72;5032253;28;19936;-39
2022/06/30 10:31:23;;;;;;;;;;;;;;;39.37;36.62;98442.75;5033046;28;19925;-39
2022/06/30 10:34:07;;;;;;;;;;;;;;;40.61;36.30;98444.88;5031069;28;19921;-39
2022/06/30 10:36:38;;;;;;;;;;;;;;;41.27;31.77;98436.41;5032139;28;20372;-39
2022/06/30 10:39:04;;;;;;;;;;;;;;;41.02;33.68;98440.56;5030211;28;19925;-39
2022/06/30 10:41:30;;;;;;;;;;;;;;;41.68;34.75;98442.00;5031587;28;19931;-39
2022/06/30 10:44:04;;;;;;;;;;;;;;;41.94;34.15;98438.25;5032636;28;19921;-40
2022/06/30 10:46:35;;;;;;;;;;;;;;;39.63;35.71;98429.59;5032995;28;20062;-39
2022/06/30 10:49:07;;;;;;;;;;;;;;;41.48;34.33;98426.50;5031765;28;19936;-40
2022/06/30 10:51:32;;;;;;;;;;;;;;;39.69;33.85;98423.19;5033308;28;19989;-39
2022/06/30 10:53:58;;;;;;;;;;;;;;;40.54;33.23;98426.19;5033202;28;19916;-39
2022/06/30 10:56:25;;;;;;;;;;;;;;;41.79;31.23;98416.63;5031915;28;19921;-39
2022/06/30 10:59:03;;;;;;;;;;;;;;;41.07;31.37;98420.88;5031603;28;20229;-40
2022/06/30 11:01:28;;;;;;;;;;;;;;;40.10;34.70;98421.75;5030249;28;19959;-39
2022/06/30 11:03:57;;;;;;;;;;;;;;;39.90;33.95;98418.84;5030405;28;20008;-40
2022/06/30 11:06:26;;;;;;;;;;;;;;;40.28;32.24;98419.75;5029242;28;20015;-39
2022/06/30 11:08:57;;;;;;;;;;;;;;;40.93;33.08;98420.53;5029625;28;20173;-40
2022/06/30 11:11:23;;;;;;;;;;;;;;;40.26;34.52;98422.75;5029882;28;20244;-39
2022/06/30 11:14:00;;;;;;;;;;;;;;;40.46;33.47;98418.56;5029384;28;19921;-39
2022/06/30 11:16:25;;;;;;;;;;;;;;;37.79;33.33;98419.41;5026239;28;20767;-39
2022/06/30 11:18:50;;;;;;;;;;;;;;;39.25;34.09;98425.84;5028446;28;19964;-39
2022/06/30 11:21:16;;;;;;;;;;;;;;;40.39;30.14;98426.06;5029663;28;20379;-39
2022/06/30 11:23:45;;;;;;;;;;;;;;;39.34;32.74;98421.66;5029518;28;19936;-39
2022/06/30 11:28:55;;;;;;;;;;;;;;;42.15;31.64;98411.25;5033705;28;20282;-40
2022/06/30 11:31:21;;;;;;;;;;;;;;;41.96;31.87;98406.34;5032485;28;20081;-40
2022/06/30 11:33:50;;;;;;;;;;;;;;;42.11;31.73;98408.31;5033052;28;20405;-39
2022/06/30 11:36:15;;;;;;;;;;;;;;;41.42;30.73;98412.13;5033201;28;19975;-40
2022/06/30 11:38:41;;;;;;;;;;;;;;;42.56;29.66;98397.75;5033153;28;20019;-40
2022/06/30 11:43:50;;;;;;;;;;;;;;;41.22;32.24;98396.69;5033411;28;19931;-40
2022/06/30 11:46:15;;;;;;;;;;;;;;;40.11;34.51;98401.78;5036410;28;19920;-40
2022/06/30 11:48:41;;;;;;;;;;;;;;;41.89;31.94;98384.16;5036315;28;19956;-40
2022/06/30 11:51:10;;;;;;;;;;;;;;;38.91;31.86;98386.34;5034125;28;20014;-39
2022/06/30 11:53:35;;;;;;;;;;;;;;;39.66;34.85;98391.34;5037354;28;19917;-39
2022/06/30 11:56:00;;;;;;;;;;;;;;;37.24;33.35;98393.88;5035445;28;20381;-40
2022/06/30 11:58:26;;;;;;;;;;;;;;;40.34;31.62;98386.38;5036675;28;20293;-39
2022/06/30 12:00:51;;;;;;;;;;;;;;;42.05;29.54;98387.72;5036110;28;19948;-40
2022/06/30 12:03:16;;;;;;;;;;;;;;;40.50;33.16;98388.09;5035189;28;19921;-39
2022/06/30 12:05:41;;;;;;;;;;;;;;;39.29;31.81;98397.38;5035664;28;19936;-40
2022/06/30 12:08:10;;;;;;;;;;;;;;;41.66;30.82;98382.78;5035389;28;19956;-40
2022/06/30 12:10:37;;;;;;;;;;;;;;;42.17;29.11;98382.03;5033977;28;19927;-40
2022/06/30 12:13:03;;;;;;;;;;;;;;;43.13;30.02;98391.13;5035775;28;19928;-40
2022/06/30 12:15:28;;;;;;;;;;;;;;;41.03;29.66;98390.88;5035780;28;19916;-40
2022/06/30 12:17:56;;;;;;;;;;;;;;;40.47;30.13;98390.50;5032702;28;20392;-40
2022/06/30 12:20:22;;;;;;;;;;;;;;;38.97;32.39;98384.56;5034302;28;19928;-39
2022/06/30 12:22:48;;;;;;;;;;;;;;;41.79;31.78;98389.56;5034446;28;19921;-39
2022/06/30 12:25:14;;;;;;;;;;;;;;;41.73;27.93;98380.63;5035003;28;20074;-39
2022/06/30 12:27:46;;;;;;;;;;;;;;;42.94;27.40;98371.16;5034723;28;20362;-39
2022/06/30 12:30:13;;;;;;;;;;;;;;;41.67;31.75;98378.97;5031889;28;19925;-40
2022/06/30 12:32:38;;;;;;;;;;;;;;;41.88;28.91;98374.44;5034753;28;19931;-40
2022/06/30 12:35:05;;;;;;;;;;;;;;;42.54;28.77;98372.84;5035346;28;19928;-39
2022/06/30 12:37:35;;;;;;;;;;;;;;;43.26;28.33;98372.69;5027374;28;19920;-39
2022/06/30 12:40:01;;;;;;;;;;;;;;;43.48;29.21;98370.41;5033239;28;19925;-40
2022/06/30 12:42:37;;;;;;;;;;;;;;;43.63;27.13;98367.59;5033648;28;19956;-40
2022/06/30 12:45:02;;;;;;;;;;;;;;;44.54;29.77;98369.91;5033729;28;20372;-40
2022/06/30 12:47:27;;;;;;;;;;;;;;;43.87;26.63;98366.91;5034868;28;19917;-40
2022/06/30 12:49:53;;;;;;;;;;;;;;;43.02;29.32;98367.88;5032439;28;19925;-39
2022/06/30 12:52:19;;;;;;;;;;;;;;;43.11;30.03;98365.38;5034696;28;19924;-39
2022/06/30 12:54:57;;;;;;;;;;;;;;;42.99;30.06;98371.13;5032800;28;20493;-40
2022/06/30 12:57:23;;;;;;;;;;;;;;;44.56;32.16;98372.34;5033934;28;19920;-39